ボードー の空港の天気 - METARとTAF

Bodo Vi ( ENBO / BOO ) - ノルウェー ヌールラン県ボードー
飛行場実況気象(Metar)
観測時間04/25 18:20 CEST (04/25 16:20 UTC)
風向・風速東 4m/s
視程10km以上
天気現象
少しの雲 雲底高度 910m
気温5℃
湿度45%
気圧1008hPa
METARENBO 251620Z 09008KT 9999 FEW030 05/M06 Q1008 NOSIG
過去の天気等 Google飛行場航空写真 Wunderground天気予報

過去48時間のMETAR

飛行場予報(TAF)
発表時間: -
26日8時 CEST ~ 26日14時 CEST に一時的に
風向・風速不定 3m/s
TAF ENBO 2512/2612 08012KT 9999 FEW040
TEMPO 2606/2612 VRB05KT